James Reserve, California Weather observations

Data are for 10 minute period ending at time listed.
 Day   Time   Solar   Ave.   Ave.  Ave.  Vector  Max.   Baro.   Total    
  of    of     Rad.   Air    Rel.  Wind   Wind   Wind  Press.  Precip.   
Year   Day            Temp.  Hum.  Speed  Dir.   Gust                    
2015   (PST)  Kw/m2    F      %     mph   deg.    mph    mb.     in.     
-------------------------------------------------------------------------
 183    2:30   0.00   57.0    92    0.2   359     0.4   840.0    0.00 
 183    2:40   0.00   57.1    92    0.2    17     0.5   840.0    0.00 
 183    2:50   0.00   57.5    91    0.3    27     0.4   840.0    0.00 
 183    3:00   0.00   57.9    89    0.2     6     0.3   840.0    0.00 
 183    3:10   0.00   58.2    88    0.2    40     0.3   840.0    0.00 
 183    3:20   0.00   58.1    88    0.2    21     0.4   840.0    0.00 
 183    3:30   0.00   57.8    89    0.1   348     0.3   840.0    0.00 
 183    3:40   0.00   57.3    90    0.2   330     0.3   840.0    0.00 
 183    3:50   0.00   57.0    90    0.3   320     0.7   840.0    0.00 
 183    4:00   0.00   56.8    91    0.3   350     0.4   840.0    0.00 
 183    4:10   0.00   56.4    91    0.3   350     0.6   840.0    0.00 
 183    4:20   0.00   56.1    91    0.4    22     0.8   840.0    0.00 
 183    4:30   0.00   55.9    91    0.3    17     0.7   840.0    0.00 
 183    4:40   0.00   55.5    91    0.3   355     0.5   840.0    0.00 
 183    4:50   0.00   55.3    90    0.3    13     0.4   840.0    0.00 
 183    5:00   0.00   55.4    90    0.3    20     0.6   840.0    0.00 
 183    5:10   0.01   55.7    90    0.3    45     0.8   840.0    0.00 
 183    5:20   0.01   56.0    89    0.3    27     0.4   840.0    0.00 
 183    5:30   0.02   56.5    88    0.3    37     0.6   840.0    0.00 
 183    5:40   0.03   57.1    87    0.3    46     0.8   840.0    0.00 
 183    5:50   0.03   57.6    87    0.2    67     0.5   841.0    0.00 
 183    6:00   0.04   58.3    87    0.2    46     0.6   841.0    0.00 
 183    6:10   0.05   58.9    86    0.2    32     0.5   841.0    0.00 
 183    6:20   0.06   59.6    86    0.2    55     0.5   841.0    0.00 
 183    6:30   0.08   60.4    86    0.2    39     0.3   841.0    0.00 
 183    6:40   0.12   61.5    84    0.3    63     0.5   841.0    0.00 
 183    6:50   0.33   63.0    83    0.2   112     0.8   841.0    0.00 
 183    7:00   0.43   65.5    76    0.5    60     1.0   841.0    0.00 
 183    7:10   0.41   66.1    75    0.3   194     1.3   841.0    0.00 
 183    7:20   0.43   66.7    74    0.3    62     0.8   841.0    0.00 
 183    7:30   0.46   67.4    72    0.4   172     1.1   841.0    0.00 
 183    7:40   0.51   67.7    69    0.7   212     2.4   841.0    0.00 
 183    7:50   0.54   68.2    70    0.7   233     1.9   841.0    0.00 
 183    8:00   0.56   69.1    68    0.4    82     1.0   841.0    0.00 
 183    8:10   0.61   69.8    64    0.5   123     1.2   841.0    0.00 
 183    8:20   0.63   69.5    63    1.0   189     2.7   841.0    0.00 
 183    8:30   0.66   69.2    63    0.8   220     1.9   841.0    0.00 
 183    8:40   0.68   70.1    60    0.7   221     1.8   841.0    0.00 
 183    8:50   0.75   70.8    59    0.9   230     1.8   841.0    0.00 
 183    9:00   0.79   70.7    60    0.9   193     2.6   841.0    0.00 
 183    9:10   0.81   71.5    58    0.8   212     2.1   841.0    0.00 
 183    9:20   0.83   72.3    57    0.8   222     1.8   841.0    0.00 
 183    9:30   0.87   73.6    54    0.8   342     1.4   841.0    0.00 
 183    9:40   0.88   73.3    53    0.8     1     1.8   841.0    0.00 
 183    9:50   0.91   72.6    54    0.8   219     2.2   841.0    0.00 
 183   10:00   0.92   72.6    52    0.9   198     2.3   841.0    0.00 
 183   10:10   0.93   71.7    51    0.8   204     2.2   841.0    0.00 
 183   10:20   0.94   72.2    50    0.9   180     2.0   841.0    0.00 
 183   10:30   0.95   72.7    48    0.8   189     2.0   841.0    0.00 
 183   10:40   0.98   72.7    47    0.9   183     2.4   841.0    0.00 
 183   10:50   1.02   73.4    45    0.9   152     2.6   841.0    0.00 
 183   11:00   1.04   72.7    45    1.0   154     3.3   841.0    0.00 
 183   11:10   1.04   73.3    42    0.9   151     2.4   841.0    0.00 
 183   11:20   1.04   73.9    41    0.9   149     2.6   841.0    0.00 
 183   11:30   1.03   75.3    38    0.9   206     2.2   841.0    0.00 
 183   11:40   1.03   74.9    38    0.9   184     2.2   841.0    0.00 
 183   11:50   1.03   73.8    40    1.1   136     2.5   841.0    0.00 
 183   12:00   1.04   74.3    42    0.9   163     2.2   841.0    0.00 
 183   12:10   1.05   74.2    43    1.3   174     3.0   841.0    0.00 
 183   12:20   1.04   74.3    44    0.7    70     2.1   841.0    0.00 
 183   12:30   1.02   76.6    43    1.0   242     2.6   841.0    0.00 
 183   12:40   1.02   75.9    45    1.1   198     2.5   841.0    0.00 
 183   12:50   1.01   75.3    46    0.9   149     2.3   841.0    0.00 
 183   13:00   1.00   75.4    47    1.1   207     3.4   841.0    0.00 
 183   13:10   0.99   75.5    47    1.0   177     2.9   841.0    0.00 
 183   13:20   0.97   75.7    46    0.9   148     2.2   841.0    0.00 
 183   13:30   0.96   76.0    46    1.0   163     2.9   841.0    0.00 
 183   13:40   0.94   75.8    46    1.2   138     2.9   841.0    0.00 
 183   13:50   0.91   75.7    46    0.9   116     2.4   841.0    0.00 
 183   14:00   0.89   76.6    45    0.8   197     2.5   840.0    0.00 
 183   14:10   0.59   76.6    46    1.0   166     2.2   840.0    0.00 
 183   14:20   0.14   75.0    48    1.0   198     2.8   840.0    0.00 
 183   14:30   0.09   75.4    48    0.7   107     1.7   840.0    0.00 
 183   14:40   0.13   74.6    48    1.0   164     2.7   840.0    0.00 
 183   14:50   0.10   74.1    49    1.1   162     3.1   840.0    0.00 
 183   15:00   0.08   74.4    49    0.8   169     2.0   840.0    0.00 
 183   15:10   0.18   74.2    48    1.0   190     3.1   840.0    0.00 
 183   15:20   0.08   74.3    49    0.8   146     2.4   840.0    0.00 
 183   15:30   0.10   74.1    50    0.9   195     2.3   840.0    0.00 
 183   15:40   0.09   74.0    49    0.8   205     2.0   840.0    0.00 
 183   15:50   0.06   74.0    49    0.7   198     2.8   840.0    0.00 
 183   16:00   0.05   73.9    49    0.8   165     2.1   840.0    0.00 
 183   16:10   0.06   73.9    49    0.8   196     2.5   840.0    0.00 
 183   16:20   0.05   73.2    49    0.8   137     2.5   840.0    0.00 
 183   16:30   0.05   73.5    48    0.8   134     1.9   840.0    0.00 
 183   16:40   0.05   73.2    48    0.8   141     3.1   99999.0    0.00 
 183   16:50   0.04   73.0    49    0.9   138     1.9   840.0    0.00 
 183   17:00   0.03   72.4    53    0.9   120     2.6   840.0    0.00 
 183   17:10   0.03   71.1    55    0.7   164     2.8   840.0    0.00 
 183   17:20   0.03   70.3    56    0.7   206     2.3   840.0    0.00 
 183   17:30   0.03   69.9    57    0.7   135     1.9   840.0    0.00 
 183   17:40   0.02   69.3    58    0.3   153     1.0   840.0    0.00 
 183   17:50   0.02   68.8    58    0.6   140     2.7   840.0    0.00 
 183   18:00   0.02   68.3    59    0.5   239     1.8   840.0    0.00 
 183   18:10   0.01   67.4    62    0.2   345     0.8   840.0    0.00 
 183   18:20   0.01   66.8    64    0.3   202     0.7   840.0    0.00 
 183   18:30   0.01   66.1    66    0.2   322     0.6   840.0    0.00 
 183   18:40   0.01   65.4    67    0.3     6     0.9   840.0    0.00 
 183   18:50   0.00   64.8    68    0.3    12     0.7   840.0    0.00 
 183   19:00   0.00   64.1    69    0.2   342     0.4   840.0    0.00 
 183   19:10   0.00   63.2    70    0.3   350     0.6   840.0    0.00 
 183   19:20   0.00   62.5    71    0.3   349     0.6   840.0    0.00 
 183   19:30   0.00   61.7    73    0.3   348     0.6   840.0    0.00 
 183   19:40   0.00   60.8    74    0.3   322     0.6   840.0    0.00 
 183   19:50   0.00   60.3    74    0.5   355     1.1   840.0    0.00 
 183   20:00   0.00   59.8    75    0.3    14     0.8   840.0    0.00 
 183   20:10   0.00   59.3    76    0.5    14     0.9   840.0    0.00 
 183   20:20   0.00   58.9    77    0.3   348     0.6   840.0    0.00 
 183   20:30   0.00   58.3    77    0.3   334     0.6   840.0    0.00 
 183   20:40   0.00   57.8    77    0.5    17     0.9   840.0    0.00 
 183   20:50   0.00   57.3    76    0.4   348     0.7   840.0    0.00 
 183   21:00   0.00   56.9    77    0.4     9     0.6   841.0    0.00 
 183   21:10   0.00   56.6    78    0.3   344     0.5   841.0    0.00 
 183   21:20   0.00   56.1    77    0.3   353     0.6   841.0    0.00 
 183   21:30   0.00   55.9    78    0.4     8     0.7   841.0    0.00 
 183   21:40   0.00   55.8    78    0.3   348     0.6   841.0    0.00 
 183   21:50   0.00   55.5    78    0.3   353     0.5   841.0    0.00 
 183   22:00   0.00   55.5    78    0.3   348     0.6   840.0    0.00 
 183   22:10   0.00   55.2    78    0.3   358     0.5   841.0    0.00 
 183   22:20   0.00   55.2    78    0.4    13     0.8   841.0    0.00 
 183   22:30   0.00   55.3    77    0.4    23     0.9   841.0    0.00 
 183   22:40   0.00   55.2    77    0.3     4     0.6   841.0    0.00 
 183   22:50   0.00   55.1    77    0.3    14     0.7   841.0    0.00 
 183   23:00   0.00   55.0    77    0.4    29     0.8   841.0    0.00 
 183   23:10   0.00   55.0    77    0.3     3     0.5   841.0    0.00 
 183   23:20   0.00   54.9    77    0.4    16     0.6   841.0    0.00 
 183   23:30   0.00   54.8    77    0.4    28     0.8   840.0    0.00 
 183   23:40   0.00   54.8    77    0.4    19     0.9   840.0    0.00 
 183   23:50   0.00   54.8    77    0.3     5     0.5   840.0    0.00 
 184    0:00   0.00   54.6    78    0.2    15     0.4   840.0    0.00 
 184    0:10   0.00   54.5    78    0.4    12     0.6   840.0    0.00 
 184    0:20   0.00   54.5    77    0.3    23     0.8   840.0    0.00 
 184    0:30   0.00   54.4    77    0.3    17     0.6   840.0    0.00 
 184    0:40   0.00   54.3    77    0.3    19     0.6   840.0    0.00 
 184    0:50   0.00   54.2    77    0.3    12     0.6   840.0    0.00 
 184    1:00   0.00   54.1    77    0.3    13     0.5   840.0    0.00 
 184    1:10   0.00   53.9    78    0.4    30     0.8   840.0    0.00 
 184    1:20   0.00   53.8    78    0.2    19     0.7   840.0    0.00 
 184    1:30   0.00   53.7    78    0.5    21     1.1   840.0    0.00 
 184    1:40   0.00   53.6    78    0.6    40     1.4   840.0    0.00 
 184    1:50   0.00   53.5    78    0.3    21     0.6   840.0    0.00 
 184    2:00   0.00   53.4    78    0.3    16     0.6   840.0    0.00 
 184    2:10   0.00   53.2    79    0.3    33     0.9   840.0    0.00 
 184    2:20   0.00   53.0    80    0.3    20     0.5   840.0    0.00 

Return to James Reserve graphs page.


Western Regional Climate Center,wrcc@dri.edu